sensor_id;sensor_type;location;lat;lon;timestamp;P1;durP1;ratioP1;P2;durP2;ratioP2
26582;SDS011;14230;45.382;10.998;2022-10-19T00:01:21;86.20;;;45.15;;
26582;SDS011;14230;45.382;10.998;2022-10-19T00:03:50;78.57;;;42.72;;
26582;SDS011;14230;45.382;10.998;2022-10-19T00:06:20;80.07;;;43.70;;
26582;SDS011;14230;45.382;10.998;2022-10-19T00:08:56;88.03;;;46.35;;
26582;SDS011;14230;45.382;10.998;2022-10-19T00:11:29;79.22;;;44.58;;
26582;SDS011;14230;45.382;10.998;2022-10-19T00:13:58;81.15;;;45.03;;
26582;SDS011;14230;45.382;10.998;2022-10-19T00:16:28;82.43;;;46.13;;
26582;SDS011;14230;45.382;10.998;2022-10-19T00:18:58;80.85;;;45.72;;
26582;SDS011;14230;45.382;10.998;2022-10-19T00:21:27;83.75;;;43.28;;
26582;SDS011;14230;45.382;10.998;2022-10-19T00:23:55;81.53;;;43.58;;
26582;SDS011;14230;45.382;10.998;2022-10-19T00:26:23;80.45;;;43.08;;
26582;SDS011;14230;45.382;10.998;2022-10-19T00:28:52;75.85;;;42.33;;
26582;SDS011;14230;45.382;10.998;2022-10-19T00:31:22;77.18;;;40.67;;
26582;SDS011;14230;45.382;10.998;2022-10-19T00:33:51;73.78;;;41.88;;
26582;SDS011;14230;45.382;10.998;2022-10-19T00:36:20;86.28;;;44.00;;
26582;SDS011;14230;45.382;10.998;2022-10-19T00:38:47;80.53;;;43.95;;
26582;SDS011;14230;45.382;10.998;2022-10-19T00:41:16;74.82;;;42.85;;
26582;SDS011;14230;45.382;10.998;2022-10-19T00:43:57;72.95;;;40.22;;
26582;SDS011;14230;45.382;10.998;2022-10-19T00:46:28;78.03;;;43.60;;
26582;SDS011;14230;45.382;10.998;2022-10-19T00:49:05;77.65;;;44.33;;
26582;SDS011;14230;45.382;10.998;2022-10-19T00:51:38;80.03;;;44.03;;
26582;SDS011;14230;45.382;10.998;2022-10-19T00:54:08;76.85;;;40.80;;
26582;SDS011;14230;45.382;10.998;2022-10-19T00:56:37;60.63;;;35.58;;
26582;SDS011;14230;45.382;10.998;2022-10-19T00:59:11;65.80;;;37.47;;
26582;SDS011;14230;45.382;10.998;2022-10-19T01:04:08;74.63;;;40.45;;
26582;SDS011;14230;45.382;10.998;2022-10-19T01:06:36;66.88;;;36.88;;
26582;SDS011;14230;45.382;10.998;2022-10-19T01:09:05;66.50;;;37.05;;
26582;SDS011;14230;45.382;10.998;2022-10-19T01:14:25;69.18;;;38.55;;
26582;SDS011;14230;45.382;10.998;2022-10-19T01:22:59;72.65;;;40.88;;
26582;SDS011;14230;45.382;10.998;2022-10-19T01:28:44;77.25;;;42.80;;
26582;SDS011;14230;45.382;10.998;2022-10-19T01:34:33;86.85;;;43.78;;
26582;SDS011;14230;45.382;10.998;2022-10-19T01:37:23;85.72;;;45.88;;
26582;SDS011;14230;45.382;10.998;2022-10-19T01:45:17;68.00;;;38.63;;
26582;SDS011;14230;45.382;10.998;2022-10-19T01:50:35;71.28;;;39.05;;
26582;SDS011;14230;45.382;10.998;2022-10-19T01:53:07;72.10;;;41.00;;
26582;SDS011;14230;45.382;10.998;2022-10-19T01:55:39;79.30;;;41.80;;
26582;SDS011;14230;45.382;10.998;2022-10-19T01:58:09;82.05;;;43.17;;
26582;SDS011;14230;45.382;10.998;2022-10-19T02:00:40;80.40;;;43.40;;
26582;SDS011;14230;45.382;10.998;2022-10-19T02:03:11;73.18;;;40.33;;
26582;SDS011;14230;45.382;10.998;2022-10-19T02:05:39;72.32;;;40.65;;
26582;SDS011;14230;45.382;10.998;2022-10-19T02:08:12;78.10;;;40.65;;
26582;SDS011;14230;45.382;10.998;2022-10-19T02:10:46;77.75;;;44.05;;
26582;SDS011;14230;45.382;10.998;2022-10-19T02:13:14;73.85;;;40.75;;
26582;SDS011;14230;45.382;10.998;2022-10-19T02:15:43;84.75;;;43.47;;
26582;SDS011;14230;45.382;10.998;2022-10-19T02:18:16;77.95;;;44.35;;
26582;SDS011;14230;45.382;10.998;2022-10-19T02:20:47;76.20;;;42.67;;
26582;SDS011;14230;45.382;10.998;2022-10-19T02:23:15;72.72;;;41.08;;
26582;SDS011;14230;45.382;10.998;2022-10-19T02:25:46;79.18;;;42.05;;
26582;SDS011;14230;45.382;10.998;2022-10-19T02:28:13;76.32;;;40.97;;
26582;SDS011;14230;45.382;10.998;2022-10-19T02:30:41;79.95;;;41.08;;
26582;SDS011;14230;45.382;10.998;2022-10-19T02:33:09;79.60;;;43.75;;
26582;SDS011;14230;45.382;10.998;2022-10-19T02:35:38;84.22;;;45.20;;
26582;SDS011;14230;45.382;10.998;2022-10-19T02:38:06;83.25;;;43.90;;
26582;SDS011;14230;45.382;10.998;2022-10-19T02:40:37;79.72;;;43.47;;
26582;SDS011;14230;45.382;10.998;2022-10-19T02:43:14;77.63;;;43.03;;
26582;SDS011;14230;45.382;10.998;2022-10-19T02:45:47;79.10;;;42.92;;
26582;SDS011;14230;45.382;10.998;2022-10-19T02:48:22;80.43;;;42.17;;
26582;SDS011;14230;45.382;10.998;2022-10-19T02:50:51;77.57;;;41.33;;
26582;SDS011;14230;45.382;10.998;2022-10-19T02:53:19;75.10;;;40.15;;
26582;SDS011;14230;45.382;10.998;2022-10-19T02:55:47;70.60;;;40.08;;
26582;SDS011;14230;45.382;10.998;2022-10-19T02:58:15;72.55;;;39.22;;
26582;SDS011;14230;45.382;10.998;2022-10-19T03:00:43;70.38;;;37.67;;
26582;SDS011;14230;45.382;10.998;2022-10-19T03:03:10;70.30;;;39.63;;
26582;SDS011;14230;45.382;10.998;2022-10-19T03:05:37;66.22;;;38.83;;
26582;SDS011;14230;45.382;10.998;2022-10-19T03:08:05;75.97;;;40.58;;
26582;SDS011;14230;45.382;10.998;2022-10-19T03:10:32;82.20;;;41.63;;
26582;SDS011;14230;45.382;10.998;2022-10-19T03:13:00;79.68;;;43.03;;
26582;SDS011;14230;45.382;10.998;2022-10-19T03:15:27;69.60;;;39.47;;
26582;SDS011;14230;45.382;10.998;2022-10-19T03:17:55;73.88;;;40.40;;
26582;SDS011;14230;45.382;10.998;2022-10-19T03:20:23;78.15;;;41.08;;
26582;SDS011;14230;45.382;10.998;2022-10-19T03:22:50;79.22;;;45.00;;
26582;SDS011;14230;45.382;10.998;2022-10-19T03:25:18;77.72;;;43.83;;
26582;SDS011;14230;45.382;10.998;2022-10-19T03:27:46;68.88;;;38.75;;
26582;SDS011;14230;45.382;10.998;2022-10-19T03:30:13;64.97;;;37.30;;
26582;SDS011;14230;45.382;10.998;2022-10-19T03:32:41;69.88;;;38.50;;
26582;SDS011;14230;45.382;10.998;2022-10-19T03:35:08;65.30;;;37.03;;
26582;SDS011;14230;45.382;10.998;2022-10-19T03:37:35;71.85;;;39.30;;
26582;SDS011;14230;45.382;10.998;2022-10-19T03:40:03;68.55;;;37.75;;
26582;SDS011;14230;45.382;10.998;2022-10-19T03:42:31;72.38;;;39.90;;
26582;SDS011;14230;45.382;10.998;2022-10-19T03:44:58;76.65;;;41.33;;
26582;SDS011;14230;45.382;10.998;2022-10-19T03:47:26;73.40;;;38.90;;
26582;SDS011;14230;45.382;10.998;2022-10-19T03:49:53;80.28;;;40.92;;
26582;SDS011;14230;45.382;10.998;2022-10-19T03:52:21;70.78;;;39.95;;
26582;SDS011;14230;45.382;10.998;2022-10-19T03:54:49;76.63;;;43.75;;
26582;SDS011;14230;45.382;10.998;2022-10-19T03:57:17;70.85;;;41.17;;
26582;SDS011;14230;45.382;10.998;2022-10-19T03:59:45;73.78;;;41.05;;
26582;SDS011;14230;45.382;10.998;2022-10-19T04:02:12;74.13;;;39.08;;
26582;SDS011;14230;45.382;10.998;2022-10-19T04:04:39;72.35;;;40.38;;
26582;SDS011;14230;45.382;10.998;2022-10-19T04:07:07;80.45;;;42.95;;
26582;SDS011;14230;45.382;10.998;2022-10-19T04:09:34;77.05;;;41.60;;
26582;SDS011;14230;45.382;10.998;2022-10-19T04:12:02;80.05;;;42.35;;
26582;SDS011;14230;45.382;10.998;2022-10-19T04:14:29;80.43;;;43.35;;
26582;SDS011;14230;45.382;10.998;2022-10-19T04:17:04;85.82;;;44.30;;
26582;SDS011;14230;45.382;10.998;2022-10-19T04:19:32;91.35;;;45.10;;
26582;SDS011;14230;45.382;10.998;2022-10-19T04:21:59;88.90;;;45.25;;
26582;SDS011;14230;45.382;10.998;2022-10-19T04:24:27;92.35;;;46.92;;
26582;SDS011;14230;45.382;10.998;2022-10-19T04:26:55;89.80;;;47.25;;
26582;SDS011;14230;45.382;10.998;2022-10-19T04:29:23;90.82;;;47.13;;
26582;SDS011;14230;45.382;10.998;2022-10-19T04:31:56;85.10;;;45.22;;
26582;SDS011;14230;45.382;10.998;2022-10-19T04:34:24;89.35;;;46.13;;
26582;SDS011;14230;45.382;10.998;2022-10-19T04:36:51;80.68;;;41.20;;
26582;SDS011;14230;45.382;10.998;2022-10-19T04:39:19;79.57;;;42.47;;
26582;SDS011;14230;45.382;10.998;2022-10-19T04:41:47;97.90;;;46.15;;
26582;SDS011;14230;45.382;10.998;2022-10-19T04:44:14;84.32;;;44.75;;
26582;SDS011;14230;45.382;10.998;2022-10-19T04:46:42;89.65;;;45.60;;
26582;SDS011;14230;45.382;10.998;2022-10-19T04:49:09;74.78;;;39.55;;
26582;SDS011;14230;45.382;10.998;2022-10-19T04:51:36;70.93;;;39.40;;
26582;SDS011;14230;45.382;10.998;2022-10-19T04:54:04;64.15;;;37.38;;
26582;SDS011;14230;45.382;10.998;2022-10-19T04:56:31;68.35;;;38.58;;
26582;SDS011;14230;45.382;10.998;2022-10-19T04:58:59;74.57;;;40.78;;
26582;SDS011;14230;45.382;10.998;2022-10-19T05:01:27;71.32;;;39.72;;
26582;SDS011;14230;45.382;10.998;2022-10-19T05:03:57;80.95;;;42.95;;
26582;SDS011;14230;45.382;10.998;2022-10-19T05:06:29;69.70;;;39.50;;
26582;SDS011;14230;45.382;10.998;2022-10-19T05:08:57;75.15;;;41.08;;
26582;SDS011;14230;45.382;10.998;2022-10-19T05:11:25;76.50;;;40.08;;
26582;SDS011;14230;45.382;10.998;2022-10-19T05:13:54;67.60;;;37.65;;
26582;SDS011;14230;45.382;10.998;2022-10-19T05:16:22;79.30;;;40.10;;
26582;SDS011;14230;45.382;10.998;2022-10-19T05:18:51;73.13;;;38.80;;
26582;SDS011;14230;45.382;10.998;2022-10-19T05:21:25;78.00;;;40.42;;
26582;SDS011;14230;45.382;10.998;2022-10-19T05:23:55;79.85;;;41.65;;
26582;SDS011;14230;45.382;10.998;2022-10-19T05:26:24;85.80;;;45.28;;
26582;SDS011;14230;45.382;10.998;2022-10-19T05:28:54;160.25;;;86.63;;
26582;SDS011;14230;45.382;10.998;2022-10-19T05:31:24;91.20;;;47.35;;
26582;SDS011;14230;45.382;10.998;2022-10-19T05:33:53;85.22;;;42.45;;
26582;SDS011;14230;45.382;10.998;2022-10-19T05:36:28;83.60;;;43.57;;
26582;SDS011;14230;45.382;10.998;2022-10-19T05:39:01;90.72;;;45.70;;
26582;SDS011;14230;45.382;10.998;2022-10-19T05:41:38;95.85;;;46.45;;
26582;SDS011;14230;45.382;10.998;2022-10-19T05:44:10;102.05;;;49.90;;
26582;SDS011;14230;45.382;10.998;2022-10-19T05:46:46;94.20;;;46.95;;
26582;SDS011;14230;45.382;10.998;2022-10-19T05:49:15;97.25;;;49.45;;
26582;SDS011;14230;45.382;10.998;2022-10-19T05:51:44;91.70;;;46.63;;
26582;SDS011;14230;45.382;10.998;2022-10-19T05:54:12;97.30;;;47.75;;
26582;SDS011;14230;45.382;10.998;2022-10-19T05:56:40;87.32;;;45.72;;
26582;SDS011;14230;45.382;10.998;2022-10-19T05:59:09;95.78;;;44.92;;
26582;SDS011;14230;45.382;10.998;2022-10-19T06:01:40;77.43;;;42.67;;
26582;SDS011;14230;45.382;10.998;2022-10-19T06:04:07;83.88;;;42.15;;
26582;SDS011;14230;45.382;10.998;2022-10-19T06:06:36;89.32;;;44.50;;
26582;SDS011;14230;45.382;10.998;2022-10-19T06:09:04;80.57;;;42.85;;
26582;SDS011;14230;45.382;10.998;2022-10-19T06:11:32;93.35;;;44.33;;
26582;SDS011;14230;45.382;10.998;2022-10-19T06:14:03;87.75;;;42.47;;
26582;SDS011;14230;45.382;10.998;2022-10-19T06:16:33;71.47;;;39.80;;
26582;SDS011;14230;45.382;10.998;2022-10-19T06:19:01;85.32;;;42.28;;
26582;SDS011;14230;45.382;10.998;2022-10-19T06:21:29;77.00;;;40.25;;
26582;SDS011;14230;45.382;10.998;2022-10-19T06:23:59;80.68;;;39.50;;
26582;SDS011;14230;45.382;10.998;2022-10-19T06:26:31;73.03;;;38.65;;
26582;SDS011;14230;45.382;10.998;2022-10-19T06:28:59;78.00;;;38.75;;
26582;SDS011;14230;45.382;10.998;2022-10-19T06:31:28;70.38;;;38.80;;
26582;SDS011;14230;45.382;10.998;2022-10-19T06:33:57;63.88;;;36.85;;
26582;SDS011;14230;45.382;10.998;2022-10-19T06:36:28;67.55;;;38.38;;
26582;SDS011;14230;45.382;10.998;2022-10-19T06:38:57;63.30;;;35.42;;
26582;SDS011;14230;45.382;10.998;2022-10-19T06:41:25;57.85;;;35.47;;
26582;SDS011;14230;45.382;10.998;2022-10-19T06:43:54;62.20;;;36.72;;
26582;SDS011;14230;45.382;10.998;2022-10-19T06:46:22;61.72;;;32.75;;
26582;SDS011;14230;45.382;10.998;2022-10-19T06:51:22;59.80;;;36.17;;
26582;SDS011;14230;45.382;10.998;2022-10-19T06:53:52;57.92;;;33.72;;
26582;SDS011;14230;45.382;10.998;2022-10-19T06:56:23;60.03;;;33.47;;
26582;SDS011;14230;45.382;10.998;2022-10-19T06:58:51;54.92;;;30.98;;
26582;SDS011;14230;45.382;10.998;2022-10-19T07:01:20;56.17;;;33.53;;
26582;SDS011;14230;45.382;10.998;2022-10-19T07:03:49;60.33;;;35.13;;
26582;SDS011;14230;45.382;10.998;2022-10-19T07:06:18;53.92;;;34.63;;
26582;SDS011;14230;45.382;10.998;2022-10-19T07:08:46;55.50;;;33.85;;
26582;SDS011;14230;45.382;10.998;2022-10-19T07:11:15;62.35;;;35.67;;
26582;SDS011;14230;45.382;10.998;2022-10-19T07:13:44;56.67;;;35.28;;
26582;SDS011;14230;45.382;10.998;2022-10-19T07:16:12;55.95;;;32.92;;
26582;SDS011;14230;45.382;10.998;2022-10-19T07:18:47;47.80;;;32.65;;
26582;SDS011;14230;45.382;10.998;2022-10-19T07:21:18;53.63;;;33.55;;
26582;SDS011;14230;45.382;10.998;2022-10-19T07:23:47;48.88;;;32.63;;
26582;SDS011;14230;45.382;10.998;2022-10-19T07:26:15;51.80;;;32.90;;
26582;SDS011;14230;45.382;10.998;2022-10-19T07:28:47;48.95;;;31.05;;
26582;SDS011;14230;45.382;10.998;2022-10-19T07:31:16;60.88;;;35.95;;
26582;SDS011;14230;45.382;10.998;2022-10-19T07:33:46;51.20;;;31.60;;
26582;SDS011;14230;45.382;10.998;2022-10-19T07:36:19;45.55;;;30.27;;
26582;SDS011;14230;45.382;10.998;2022-10-19T07:38:47;49.60;;;34.58;;
26582;SDS011;14230;45.382;10.998;2022-10-19T07:41:16;56.08;;;32.97;;
26582;SDS011;14230;45.382;10.998;2022-10-19T07:43:45;60.47;;;37.25;;
26582;SDS011;14230;45.382;10.998;2022-10-19T07:46:14;62.05;;;40.80;;
26582;SDS011;14230;45.382;10.998;2022-10-19T07:48:47;59.30;;;38.15;;
26582;SDS011;14230;45.382;10.998;2022-10-19T07:51:15;61.50;;;39.88;;
26582;SDS011;14230;45.382;10.998;2022-10-19T07:53:44;59.92;;;38.55;;
26582;SDS011;14230;45.382;10.998;2022-10-19T07:56:13;61.78;;;39.28;;
26582;SDS011;14230;45.382;10.998;2022-10-19T07:58:46;59.72;;;40.92;;
26582;SDS011;14230;45.382;10.998;2022-10-19T08:01:14;61.30;;;41.95;;
26582;SDS011;14230;45.382;10.998;2022-10-19T08:03:44;62.25;;;41.63;;
26582;SDS011;14230;45.382;10.998;2022-10-19T08:06:32;65.90;;;41.88;;
26582;SDS011;14230;45.382;10.998;2022-10-19T08:09:00;63.97;;;43.83;;
26582;SDS011;14230;45.382;10.998;2022-10-19T08:11:28;60.70;;;39.00;;
26582;SDS011;14230;45.382;10.998;2022-10-19T08:14:00;68.47;;;45.97;;
26582;SDS011;14230;45.382;10.998;2022-10-19T08:16:30;67.07;;;49.08;;
26582;SDS011;14230;45.382;10.998;2022-10-19T08:19:10;69.50;;;46.78;;
26582;SDS011;14230;45.382;10.998;2022-10-19T08:21:40;66.43;;;49.78;;
26582;SDS011;14230;45.382;10.998;2022-10-19T08:24:10;69.13;;;50.67;;
26582;SDS011;14230;45.382;10.998;2022-10-19T08:26:39;68.28;;;51.40;;
26582;SDS011;14230;45.382;10.998;2022-10-19T08:29:28;68.55;;;53.00;;
26582;SDS011;14230;45.382;10.998;2022-10-19T08:31:57;71.60;;;54.78;;
26582;SDS011;14230;45.382;10.998;2022-10-19T08:34:25;69.32;;;54.08;;
26582;SDS011;14230;45.382;10.998;2022-10-19T08:36:52;68.85;;;54.30;;
26582;SDS011;14230;45.382;10.998;2022-10-19T08:39:20;71.32;;;56.25;;
26582;SDS011;14230;45.382;10.998;2022-10-19T08:45:18;71.47;;;55.50;;
26582;SDS011;14230;45.382;10.998;2022-10-19T08:47:52;67.22;;;52.60;;
26582;SDS011;14230;45.382;10.998;2022-10-19T08:50:44;71.35;;;55.60;;
26582;SDS011;14230;45.382;10.998;2022-10-19T08:53:15;67.75;;;52.65;;
26582;SDS011;14230;45.382;10.998;2022-10-19T08:55:53;72.07;;;55.30;;
26582;SDS011;14230;45.382;10.998;2022-10-19T08:58:44;65.35;;;50.30;;
26582;SDS011;14230;45.382;10.998;2022-10-19T09:03:55;61.35;;;47.00;;
26582;SDS011;14230;45.382;10.998;2022-10-19T09:09:18;65.25;;;50.03;;
26582;SDS011;14230;45.382;10.998;2022-10-19T09:11:47;73.22;;;55.72;;
26582;SDS011;14230;45.382;10.998;2022-10-19T09:14:20;67.63;;;52.75;;
26582;SDS011;14230;45.382;10.998;2022-10-19T09:17:13;72.97;;;52.40;;
26582;SDS011;14230;45.382;10.998;2022-10-19T09:19:42;68.88;;;55.58;;
26582;SDS011;14230;45.382;10.998;2022-10-19T09:22:24;72.45;;;54.97;;
26582;SDS011;14230;45.382;10.998;2022-10-19T09:25:11;68.53;;;53.78;;
26582;SDS011;14230;45.382;10.998;2022-10-19T09:27:41;63.80;;;49.80;;
26582;SDS011;14230;45.382;10.998;2022-10-19T09:30:20;70.78;;;58.65;;
26582;SDS011;14230;45.382;10.998;2022-10-19T09:32:50;68.78;;;53.42;;
26582;SDS011;14230;45.382;10.998;2022-10-19T09:37:59;75.13;;;58.40;;
26582;SDS011;14230;45.382;10.998;2022-10-19T09:40:28;75.22;;;61.17;;
26582;SDS011;14230;45.382;10.998;2022-10-19T09:42:57;79.32;;;58.10;;
26582;SDS011;14230;45.382;10.998;2022-10-19T09:51:17;79.18;;;57.75;;
26582;SDS011;14230;45.382;10.998;2022-10-19T09:53:52;73.90;;;57.58;;
26582;SDS011;14230;45.382;10.998;2022-10-19T09:58:50;75.57;;;52.55;;
26582;SDS011;14230;45.382;10.998;2022-10-19T10:01:32;71.60;;;55.10;;
26582;SDS011;14230;45.382;10.998;2022-10-19T10:04:09;71.05;;;54.65;;
26582;SDS011;14230;45.382;10.998;2022-10-19T10:06:41;79.95;;;60.50;;
26582;SDS011;14230;45.382;10.998;2022-10-19T10:09:24;69.65;;;55.90;;
26582;SDS011;14230;45.382;10.998;2022-10-19T10:11:55;76.07;;;54.97;;
26582;SDS011;14230;45.382;10.998;2022-10-19T10:14:27;75.90;;;54.65;;
26582;SDS011;14230;45.382;10.998;2022-10-19T10:17:16;79.80;;;50.08;;
26582;SDS011;14230;45.382;10.998;2022-10-19T10:23:01;78.68;;;47.95;;
26582;SDS011;14230;45.382;10.998;2022-10-19T10:25:34;84.65;;;57.80;;
26582;SDS011;14230;45.382;10.998;2022-10-19T10:28:21;86.75;;;56.30;;
26582;SDS011;14230;45.382;10.998;2022-10-19T10:31:03;82.70;;;52.65;;
26582;SDS011;14230;45.382;10.998;2022-10-19T10:33:34;81.00;;;59.22;;
26582;SDS011;14230;45.382;10.998;2022-10-19T10:36:11;78.68;;;57.65;;
26582;SDS011;14230;45.382;10.998;2022-10-19T10:38:40;79.68;;;60.65;;
26582;SDS011;14230;45.382;10.998;2022-10-19T10:41:15;87.13;;;56.65;;
26582;SDS011;14230;45.382;10.998;2022-10-19T10:43:58;81.18;;;59.38;;
26582;SDS011;14230;45.382;10.998;2022-10-19T10:46:40;86.18;;;57.78;;
26582;SDS011;14230;45.382;10.998;2022-10-19T10:49:36;77.68;;;58.55;;
26582;SDS011;14230;45.382;10.998;2022-10-19T10:52:06;77.85;;;56.22;;
26582;SDS011;14230;45.382;10.998;2022-10-19T10:54:37;88.30;;;57.85;;
26582;SDS011;14230;45.382;10.998;2022-10-19T10:57:09;83.47;;;57.75;;
26582;SDS011;14230;45.382;10.998;2022-10-19T10:59:43;84.10;;;57.72;;
26582;SDS011;14230;45.382;10.998;2022-10-19T11:02:22;85.13;;;57.45;;
26582;SDS011;14230;45.382;10.998;2022-10-19T11:04:58;93.57;;;57.42;;
26582;SDS011;14230;45.382;10.998;2022-10-19T11:07:39;91.87;;;57.87;;
26582;SDS011;14230;45.382;10.998;2022-10-19T11:12:52;100.32;;;57.85;;
26582;SDS011;14230;45.382;10.998;2022-10-19T11:15:43;97.22;;;57.08;;
26582;SDS011;14230;45.382;10.998;2022-10-19T11:18:20;95.68;;;56.28;;
26582;SDS011;14230;45.382;10.998;2022-10-19T11:21:01;105.57;;;56.53;;
26582;SDS011;14230;45.382;10.998;2022-10-19T11:26:39;94.53;;;57.13;;
26582;SDS011;14230;45.382;10.998;2022-10-19T11:31:48;98.68;;;55.60;;
26582;SDS011;14230;45.382;10.998;2022-10-19T11:44:37;85.85;;;50.40;;
26582;SDS011;14230;45.382;10.998;2022-10-19T11:50:08;96.07;;;53.10;;
26582;SDS011;14230;45.382;10.998;2022-10-19T11:52:58;86.50;;;54.17;;
26582;SDS011;14230;45.382;10.998;2022-10-19T12:09:49;82.82;;;51.47;;
26582;SDS011;14230;45.382;10.998;2022-10-19T12:12:39;86.57;;;52.03;;
26582;SDS011;14230;45.382;10.998;2022-10-19T12:15:41;87.25;;;51.33;;
26582;SDS011;14230;45.382;10.998;2022-10-19T12:21:10;83.50;;;51.03;;
26582;SDS011;14230;45.382;10.998;2022-10-19T12:23:40;92.47;;;51.55;;
26582;SDS011;14230;45.382;10.998;2022-10-19T12:26:13;85.37;;;50.73;;
26582;SDS011;14230;45.382;10.998;2022-10-19T12:28:49;79.35;;;47.83;;
26582;SDS011;14230;45.382;10.998;2022-10-19T12:31:22;88.45;;;49.20;;
26582;SDS011;14230;45.382;10.998;2022-10-19T12:34:07;78.28;;;47.97;;
26582;SDS011;14230;45.382;10.998;2022-10-19T12:37:03;75.65;;;43.50;;
26582;SDS011;14230;45.382;10.998;2022-10-19T12:42:41;71.15;;;44.08;;
26582;SDS011;14230;45.382;10.998;2022-10-19T12:45:24;68.68;;;42.05;;
26582;SDS011;14230;45.382;10.998;2022-10-19T12:51:17;64.07;;;36.83;;
26582;SDS011;14230;45.382;10.998;2022-10-19T12:53:36;53.25;;;33.38;;
26582;SDS011;14230;45.382;10.998;2022-10-19T12:56:23;61.13;;;33.88;;
26582;SDS011;14230;45.382;10.998;2022-10-19T12:58:53;73.13;;;38.88;;
26582;SDS011;14230;45.382;10.998;2022-10-19T13:01:28;58.20;;;34.03;;
26582;SDS011;14230;45.382;10.998;2022-10-19T13:04:11;60.83;;;37.53;;
26582;SDS011;14230;45.382;10.998;2022-10-19T13:06:42;68.25;;;43.35;;
26582;SDS011;14230;45.382;10.998;2022-10-19T13:09:32;70.28;;;42.70;;
26582;SDS011;14230;45.382;10.998;2022-10-19T13:14:49;61.53;;;38.08;;
26582;SDS011;14230;45.382;10.998;2022-10-19T13:25:17;50.78;;;33.10;;
26582;SDS011;14230;45.382;10.998;2022-10-19T13:41:10;51.90;;;32.85;;
26582;SDS011;14230;45.382;10.998;2022-10-19T13:43:49;54.40;;;33.47;;
26582;SDS011;14230;45.382;10.998;2022-10-19T13:57:45;52.75;;;34.13;;
26582;SDS011;14230;45.382;10.998;2022-10-19T14:03:52;57.28;;;34.47;;
26582;SDS011;14230;45.382;10.998;2022-10-19T14:06:47;61.17;;;34.85;;
26582;SDS011;14230;45.382;10.998;2022-10-19T14:14:43;55.97;;;36.92;;
26582;SDS011;14230;45.382;10.998;2022-10-19T14:17:15;57.47;;;35.95;;
26582;SDS011;14230;45.382;10.998;2022-10-19T14:19:50;59.03;;;36.85;;
26582;SDS011;14230;45.382;10.998;2022-10-19T14:22:33;63.97;;;35.85;;
26582;SDS011;14230;45.382;10.998;2022-10-19T14:25:04;54.85;;;35.05;;
26582;SDS011;14230;45.382;10.998;2022-10-19T14:27:40;65.90;;;38.05;;
26582;SDS011;14230;45.382;10.998;2022-10-19T14:30:21;63.28;;;38.25;;
26582;SDS011;14230;45.382;10.998;2022-10-19T14:32:54;62.38;;;37.35;;
26582;SDS011;14230;45.382;10.998;2022-10-19T14:35:38;66.22;;;36.97;;
26582;SDS011;14230;45.382;10.998;2022-10-19T14:38:07;60.88;;;36.55;;
26582;SDS011;14230;45.382;10.998;2022-10-19T14:40:41;60.53;;;35.90;;
26582;SDS011;14230;45.382;10.998;2022-10-19T14:46:54;66.93;;;37.97;;
26582;SDS011;14230;45.382;10.998;2022-10-19T14:48:58;57.08;;;33.47;;
26582;SDS011;14230;45.382;10.998;2022-10-19T14:51:47;62.05;;;35.70;;
26582;SDS011;14230;45.382;10.998;2022-10-19T14:56:58;58.35;;;35.72;;
26582;SDS011;14230;45.382;10.998;2022-10-19T15:02:16;60.90;;;36.05;;
26582;SDS011;14230;45.382;10.998;2022-10-19T15:04:57;57.00;;;35.97;;
26582;SDS011;14230;45.382;10.998;2022-10-19T15:07:29;61.30;;;38.25;;
26582;SDS011;14230;45.382;10.998;2022-10-19T15:10:04;55.30;;;35.35;;
26582;SDS011;14230;45.382;10.998;2022-10-19T15:12:36;58.05;;;35.53;;
26582;SDS011;14230;45.382;10.998;2022-10-19T15:15:07;58.45;;;34.78;;
26582;SDS011;14230;45.382;10.998;2022-10-19T15:20:24;63.20;;;36.50;;
26582;SDS011;14230;45.382;10.998;2022-10-19T15:22:55;64.93;;;39.27;;
26582;SDS011;14230;45.382;10.998;2022-10-19T15:25:28;58.38;;;36.85;;
26582;SDS011;14230;45.382;10.998;2022-10-19T15:28:17;60.70;;;38.40;;
26582;SDS011;14230;45.382;10.998;2022-10-19T15:30:56;65.60;;;37.87;;
26582;SDS011;14230;45.382;10.998;2022-10-19T15:33:38;58.22;;;36.90;;
26582;SDS011;14230;45.382;10.998;2022-10-19T15:36:09;63.92;;;37.83;;
26582;SDS011;14230;45.382;10.998;2022-10-19T15:38:44;59.35;;;36.13;;
26582;SDS011;14230;45.382;10.998;2022-10-19T15:41:20;64.70;;;38.05;;
26582;SDS011;14230;45.382;10.998;2022-10-19T15:44:00;71.03;;;37.13;;
26582;SDS011;14230;45.382;10.998;2022-10-19T15:46:35;67.75;;;37.97;;
26582;SDS011;14230;45.382;10.998;2022-10-19T15:52:16;59.17;;;38.78;;
26582;SDS011;14230;45.382;10.998;2022-10-19T15:54:45;67.18;;;38.15;;
26582;SDS011;14230;45.382;10.998;2022-10-19T15:57:24;76.40;;;39.88;;
26582;SDS011;14230;45.382;10.998;2022-10-19T15:59:52;65.03;;;39.10;;
26582;SDS011;14230;45.382;10.998;2022-10-19T16:02:21;70.53;;;39.78;;
26582;SDS011;14230;45.382;10.998;2022-10-19T16:04:52;67.15;;;38.65;;
26582;SDS011;14230;45.382;10.998;2022-10-19T16:07:25;64.25;;;39.03;;
26582;SDS011;14230;45.382;10.998;2022-10-19T16:09:57;85.57;;;40.88;;
26582;SDS011;14230;45.382;10.998;2022-10-19T16:12:25;74.45;;;40.22;;
26582;SDS011;14230;45.382;10.998;2022-10-19T16:14:53;74.03;;;39.30;;
26582;SDS011;14230;45.382;10.998;2022-10-19T16:17:20;73.18;;;42.75;;
26582;SDS011;14230;45.382;10.998;2022-10-19T16:19:48;66.78;;;40.42;;
26582;SDS011;14230;45.382;10.998;2022-10-19T16:22:16;68.20;;;41.92;;
26582;SDS011;14230;45.382;10.998;2022-10-19T16:24:43;71.90;;;40.75;;
26582;SDS011;14230;45.382;10.998;2022-10-19T16:27:10;95.35;;;45.70;;
26582;SDS011;14230;45.382;10.998;2022-10-19T16:29:41;70.90;;;39.35;;
26582;SDS011;14230;45.382;10.998;2022-10-19T16:32:10;79.05;;;41.90;;
26582;SDS011;14230;45.382;10.998;2022-10-19T16:34:37;68.50;;;39.85;;
26582;SDS011;14230;45.382;10.998;2022-10-19T16:37:05;80.88;;;40.92;;
26582;SDS011;14230;45.382;10.998;2022-10-19T16:39:34;71.82;;;39.70;;
26582;SDS011;14230;45.382;10.998;2022-10-19T16:42:01;76.00;;;41.50;;
26582;SDS011;14230;45.382;10.998;2022-10-19T16:44:29;77.40;;;42.75;;
26582;SDS011;14230;45.382;10.998;2022-10-19T16:46:56;81.07;;;43.70;;
26582;SDS011;14230;45.382;10.998;2022-10-19T16:49:24;73.35;;;41.38;;
26582;SDS011;14230;45.382;10.998;2022-10-19T16:51:52;65.93;;;42.08;;
26582;SDS011;14230;45.382;10.998;2022-10-19T16:54:23;76.47;;;41.55;;
26582;SDS011;14230;45.382;10.998;2022-10-19T16:56:52;70.93;;;41.88;;
26582;SDS011;14230;45.382;10.998;2022-10-19T16:59:21;72.40;;;42.47;;
26582;SDS011;14230;45.382;10.998;2022-10-19T17:01:49;69.72;;;41.03;;
26582;SDS011;14230;45.382;10.998;2022-10-19T17:04:16;76.88;;;42.17;;
26582;SDS011;14230;45.382;10.998;2022-10-19T17:06:45;79.68;;;44.08;;
26582;SDS011;14230;45.382;10.998;2022-10-19T17:09:12;83.78;;;43.42;;
26582;SDS011;14230;45.382;10.998;2022-10-19T17:12:00;85.20;;;42.92;;